Time;durP1;ratioP1;P1;durP2;ratioP2;P2;SDS_P1;SDS_P2;PMS_P1;PMS_P2;Temp;Humidity;BMP_temperature;BMP_pressure;BME280_temperature;BME280_humidity;BME280_pressure;Samples;Min_cycle;Max_cycle;Signal;HPM_P1;HPM_P2
2023/09/28 00:00:38;;;;;;;12.15;5.65;;;;;;;17.86;65.44;100231.63;5057106;28;20040;-80
2023/09/28 00:03:23;;;;;;;18.25;5.07;;;;;;;17.95;64.21;100245.44;5067346;28;20524;-80
2023/09/28 00:08:32;;;;;;;11.32;4.80;;;;;;;17.71;65.21;100245.00;5053830;28;20039;-79
2023/09/28 00:10:58;;;;;;;12.52;4.50;;;;;;;17.94;64.97;100227.63;5048882;28;20029;-79
2023/09/28 00:13:23;;;;;;;13.68;4.75;;;;;;;17.75;65.68;100235.31;5049765;28;20033;-80
2023/09/28 00:16:07;;;;;;;8.82;4.63;;;;;;;17.46;64.42;100194.44;5048629;28;20017;-81
2023/09/28 00:18:33;;;;;;;9.60;4.22;;;;;;;17.80;65.58;100210.28;5052459;28;20033;-80
2023/09/28 00:20:59;;;;;;;12.77;4.25;;;;;;;18.21;64.83;100211.25;5049681;28;20108;-80
2023/09/28 00:23:24;;;;;;;13.85;4.50;;;;;;;18.17;64.61;100212.06;5049878;28;20033;-79
2023/09/28 00:28:52;;;;;;;11.27;4.40;;;;;;;17.48;64.07;100222.75;5045981;28;20044;-80
2023/09/28 00:31:18;;;;;;;10.10;4.00;;;;;;;17.83;66.10;100215.16;5058736;28;20021;-80
2023/09/28 00:36:27;;;;;;;9.13;3.83;;;;;;;17.91;63.40;100217.34;5049996;28;20032;-79
2023/09/28 00:38:52;;;;;;;11.15;4.32;;;;;;;17.70;66.77;100223.72;5053743;28;21389;-83
2023/09/28 00:41:18;;;;;;;11.10;4.40;;;;;;;17.70;65.62;100237.19;5048730;28;20028;-80
2023/09/28 00:43:44;;;;;;;8.40;4.40;;;;;;;17.16;67.71;100228.25;5049221;28;20406;-80
2023/09/28 00:46:14;;;;;;;9.27;4.10;;;;;;;17.34;66.98;100220.78;5051813;28;20029;-80
2023/09/28 00:48:57;;;;;;;9.57;3.83;;;;;;;17.55;67.02;100200.97;5055623;28;20031;-81
2023/09/28 00:51:25;;;;;;;10.45;4.43;;;;;;;17.15;67.56;100213.13;5067039;28;20021;-79
2023/09/28 00:53:51;;;;;;;8.05;3.78;;;;;;;17.35;66.40;100200.88;5052414;28;20087;-80
2023/09/28 00:56:18;;;;;;;9.77;4.20;;;;;;;17.77;65.79;100226.97;5052509;28;20036;-80
2023/09/28 00:59:03;;;;;;;9.57;3.90;;;;;;;17.47;64.07;100228.44;5070751;28;20175;-79
2023/09/28 01:01:29;;;;;;;22.85;4.85;;;;;;;17.56;65.65;100218.78;5052935;28;20033;-80
2023/09/28 01:04:02;;;;;;;10.95;4.10;;;;;;;17.41;66.91;100221.41;5053601;28;20029;-80
2023/09/28 01:06:27;;;;;;;10.85;4.43;;;;;;;17.31;67.35;100229.41;5056076;28;20463;-81
2023/09/28 01:08:53;;;;;;;8.02;4.30;;;;;;;17.33;66.84;100217.28;5055648;28;20481;-80
2023/09/28 01:11:20;;;;;;;8.98;3.97;;;;;;;17.26;66.81;100205.91;5061680;28;20028;-81
2023/09/28 01:13:46;;;;;;;9.77;4.25;;;;;;;17.10;66.89;100193.41;5053236;28;20029;-83
2023/09/28 01:16:13;;;;;;;8.98;4.30;;;;;;;17.12;64.14;100205.56;5053002;28;20032;-79
2023/09/28 01:18:38;;;;;;;8.15;4.25;;;;;;;16.96;67.60;100196.56;5052837;28;20096;-81
2023/09/28 01:21:06;;;;;;;13.70;4.80;;;;;;;17.03;67.17;100190.94;5072885;28;20525;-79
2023/09/28 01:26:16;;;;;;;7.72;3.85;;;;;;;17.76;65.32;100212.69;5068489;28;20044;-80
2023/09/28 01:28:41;;;;;;;8.68;3.80;;;;;;;17.76;64.17;100193.78;5072472;28;20026;-81
2023/09/28 01:31:07;;;;;;;10.98;4.53;;;;;;;17.55;64.90;100209.06;5053025;28;20029;-80
2023/09/28 01:33:51;;;;;;;9.60;4.53;;;;;;;17.09;63.43;100203.38;5070693;28;20027;-80
2023/09/28 01:36:16;;;;;;;11.68;4.47;;;;;;;16.79;67.47;100196.66;5054919;28;20120;-79
2023/09/28 01:41:46;;;;;;;12.73;4.30;;;;;;;16.98;67.34;100209.75;5043986;28;20589;-82
2023/09/28 01:44:30;;;;;;;10.07;3.90;;;;;;;16.47;66.15;100194.78;5052330;28;20111;-81
2023/09/28 01:46:56;;;;;;;8.77;4.22;;;;;;;16.81;67.24;100205.31;5032035;28;20052;-80
2023/09/28 01:49:21;;;;;;;11.93;4.78;;;;;;;16.85;67.64;100201.03;5069710;28;20115;-79
2023/09/28 01:55:08;;;;;;;8.55;4.55;;;;;;;16.63;67.24;100213.75;5052420;28;20086;-81
2023/09/28 01:57:33;;;;;;;7.45;4.63;;;;;;;17.15;67.55;100193.47;5050524;28;20509;-80
2023/09/28 02:00:00;;;;;;;9.27;4.82;;;;;;;17.45;66.56;100206.31;5056074;28;20029;-80
2023/09/28 02:05:32;;;;;;;7.00;4.05;;;;;;;16.91;68.16;100198.41;5052289;28;20761;-80
2023/09/28 02:08:05;;;;;;;8.18;4.60;;;;;;;16.95;69.30;100204.91;5052100;28;20025;-80
2023/09/28 02:10:32;;;;;;;8.18;4.43;;;;;;;16.65;70.09;100198.13;5059817;28;20419;-79
2023/09/28 02:12:57;;;;;;;9.25;4.85;;;;;;;17.09;69.81;100211.47;5061499;28;20037;-80
2023/09/28 02:15:41;;;;;;;11.68;5.30;;;;;;;16.86;69.69;100201.88;5054270;28;20027;-80
2023/09/28 02:18:07;;;;;;;9.70;5.40;;;;;;;17.22;70.28;100202.94;5069770;28;20037;-80
2023/09/28 02:20:34;;;;;;;11.73;5.72;;;;;;;17.05;70.22;100218.44;5068005;28;20017;-80
2023/09/28 02:22:59;;;;;;;9.57;6.07;;;;;;;16.83;71.16;100224.72;5061954;28;20052;-80
2023/09/28 02:25:26;;;;;;;14.10;6.75;;;;;;;16.87;71.26;100215.06;5051303;28;20305;-81
2023/09/28 02:27:52;;;;;;;14.10;7.60;;;;;;;16.80;71.57;100209.06;5051445;28;20021;-84
2023/09/28 02:33:09;;;;;;;18.73;8.07;;;;;;;16.67;73.46;100209.47;5051671;28;20039;-80
2023/09/28 02:35:35;;;;;;;18.35;8.90;;;;;;;16.95;72.77;100210.28;5053249;28;20025;-79
2023/09/28 02:40:44;;;;;;;15.85;7.65;;;;;;;17.26;73.09;100201.34;5071002;28;20044;-80
2023/09/28 02:43:10;;;;;;;14.85;8.25;;;;;;;17.30;72.63;100217.00;5056119;28;20032;-80
2023/09/28 02:45:35;;;;;;;16.05;8.73;;;;;;;17.23;73.18;100218.03;5050467;28;20037;-80
2023/09/28 02:50:44;;;;;;;16.65;8.35;;;;;;;17.23;73.07;100222.63;5056057;28;20455;-79
2023/09/28 02:53:10;;;;;;;18.13;8.00;;;;;;;17.01;74.06;100228.13;5056099;28;20037;-79
2023/09/28 02:55:36;;;;;;;16.80;8.50;;;;;;;17.06;73.46;100211.97;5071080;28;20021;-82
2023/09/28 02:58:22;;;;;;;15.60;8.40;;;;;;;17.03;73.55;100209.81;5069944;28;20722;-80
2023/09/28 03:01:06;;;;;;;15.45;7.88;;;;;;;16.72;75.74;100212.22;5051140;28;20033;-79
2023/09/28 03:03:33;;;;;;;16.60;7.70;;;;;;;16.82;75.22;100220.41;5057582;28;20784;-79
2023/09/28 03:05:59;;;;;;;17.42;7.57;;;;;;;16.90;75.46;100215.63;5068337;28;20021;-79
2023/09/28 03:08:24;;;;;;;15.52;7.18;;;;;;;16.94;75.73;100219.41;5051360;28;20106;-80
2023/09/28 03:10:53;;;;;;;14.80;7.07;;;;;;;16.76;74.99;100178.31;5054290;28;20163;-80
2023/09/28 03:13:39;;;;;;;15.57;6.78;;;;;;;17.26;75.75;100219.38;5050086;28;20029;-79
2023/09/28 03:16:05;;;;;;;16.98;8.07;;;;;;;17.14;74.34;100211.53;5049824;28;20087;-80
2023/09/28 03:18:49;;;;;;;17.85;8.48;;;;;;;16.90;76.14;100207.53;5051355;28;20684;-79
2023/09/28 03:21:14;;;;;;;14.25;7.20;;;;;;;17.03;76.57;100216.00;5051631;28;20029;-79
2023/09/28 03:23:39;;;;;;;14.77;7.63;;;;;;;17.35;75.98;100220.53;5051479;28;20112;-79
2023/09/28 03:26:06;;;;;;;15.32;7.20;;;;;;;17.43;75.80;100205.78;5050672;28;20033;-81
2023/09/28 03:28:31;;;;;;;13.35;6.63;;;;;;;17.39;74.53;100204.66;5050116;28;20492;-81
2023/09/28 03:30:56;;;;;;;16.75;7.25;;;;;;;17.36;75.48;100207.88;5061091;28;20024;-81
2023/09/28 03:33:40;;;;;;;11.43;7.03;;;;;;;17.52;74.59;100198.00;5062347;28;20028;-81
2023/09/28 03:38:50;;;;;;;18.17;7.32;;;;;;;17.54;75.68;100217.41;5036871;28;20068;-81
2023/09/28 03:41:17;;;;;;;14.07;7.03;;;;;;;17.57;75.55;100217.72;5059890;28;20025;-79
2023/09/28 03:43:48;;;;;;;17.38;7.72;;;;;;;17.76;74.00;100217.28;5060758;28;20028;-82
2023/09/28 03:46:18;;;;;;;14.43;7.30;;;;;;;17.94;73.92;100237.59;5077464;28;20029;-80
2023/09/28 03:48:45;;;;;;;11.23;6.80;;;;;;;17.85;73.43;100234.59;5035769;28;20037;-81
2023/09/28 03:51:10;;;;;;;15.23;6.97;;;;;;;17.89;72.89;100224.09;5071306;28;20103;-81
2023/09/28 03:53:57;;;;;;;16.05;7.45;;;;;;;18.07;73.74;100237.91;5057287;28;20095;-81
2023/09/28 03:56:22;;;;;;;12.60;7.13;;;;;;;17.83;73.96;100242.94;5075230;28;20028;-82
2023/09/28 03:58:48;;;;;;;15.27;7.60;;;;;;;17.96;73.08;100228.16;5053997;28;20437;-80
2023/09/28 04:01:32;;;;;;;15.68;7.03;;;;;;;18.10;72.13;100251.97;5053447;28;20029;-81
2023/09/28 04:03:57;;;;;;;19.27;7.82;;;;;;;18.12;71.95;100245.22;5062447;28;20032;-81
2023/09/28 04:06:23;;;;;;;18.25;7.15;;;;;;;17.99;71.23;100224.94;5051569;28;20033;-80
2023/09/28 04:08:48;;;;;;;14.02;6.25;;;;;;;18.07;71.56;100264.09;5052111;28;20023;-81
2023/09/28 04:11:14;;;;;;;14.98;6.60;;;;;;;18.01;71.27;100247.06;5053107;28;20112;-81
2023/09/28 04:13:39;;;;;;;15.63;6.90;;;;;;;18.21;70.52;100259.84;5062490;28;20088;-81
2023/09/28 04:16:05;;;;;;;14.43;6.63;;;;;;;18.01;70.81;100247.06;5049890;28;20041;-80
2023/09/28 04:18:50;;;;;;;13.02;7.07;;;;;;;18.19;71.18;100258.47;5049621;28;20468;-80
2023/09/28 04:21:15;;;;;;;13.70;6.20;;;;;;;18.08;70.83;100254.91;5049260;28;20126;-80
2023/09/28 04:29:27;;;;;;;15.02;6.15;;;;;;;18.05;72.49;100274.34;5037644;28;20064;-84
2023/09/28 04:31:53;;;;;;;13.65;6.25;;;;;;;18.17;72.73;100280.34;5070761;28;20052;-80
2023/09/28 04:34:20;;;;;;;17.58;6.90;;;;;;;18.23;71.80;100275.78;5054191;28;20116;-80
2023/09/28 04:36:46;;;;;;;12.85;6.10;;;;;;;18.54;70.46;100286.66;5054034;28;20039;-80
2023/09/28 04:39:12;;;;;;;16.30;6.60;;;;;;;18.42;70.62;100279.59;5054377;28;20029;-80
2023/09/28 04:44:23;;;;;;;13.68;5.57;;;;;;;18.16;71.66;100264.41;5044734;28;20575;-80
2023/09/28 04:46:50;;;;;;;16.88;5.90;;;;;;;18.13;71.86;100263.03;5073230;28;20086;-81
2023/09/28 04:49:19;;;;;;;11.55;5.43;;;;;;;18.35;71.46;100264.72;5056016;28;20402;-84
2023/09/28 04:51:45;;;;;;;15.77;5.22;;;;;;;18.41;70.06;100283.41;5055888;28;20035;-80
2023/09/28 04:54:10;;;;;;;14.18;5.68;;;;;;;18.34;70.81;100274.72;5055557;28;20033;-80
2023/09/28 04:56:54;;;;;;;12.70;5.35;;;;;;;18.37;70.95;100295.78;5053190;28;20478;-80
2023/09/28 04:59:38;;;;;;;12.02;5.43;;;;;;;18.51;70.52;100295.28;5068298;28;20043;-83
2023/09/28 05:02:22;;;;;;;13.77;5.80;;;;;;;18.29;71.54;100293.63;5054338;28;20040;-81
2023/09/28 05:04:48;;;;;;;13.05;5.63;;;;;;;17.89;71.71;100259.16;5042321;28;20048;-80
2023/09/28 05:10:16;;;;;;;15.10;5.68;;;;;;;18.41;70.66;100291.50;5036025;28;20036;-80
2023/09/28 05:12:41;;;;;;;12.93;5.93;;;;;;;18.37;70.80;100278.75;5060042;28;20028;-86
2023/09/28 05:15:08;;;;;;;13.07;5.95;;;;;;;18.36;71.27;100283.34;5059955;28;20021;-81
2023/09/28 05:17:33;;;;;;;10.52;5.45;;;;;;;18.33;71.16;100278.50;5053233;28;20064;-81
2023/09/28 05:22:43;;;;;;;10.10;5.40;;;;;;;18.58;69.41;100303.97;5054696;28;20059;-80
2023/09/28 05:25:27;;;;;;;9.95;5.53;;;;;;;18.76;68.15;100292.66;5063950;28;20036;-80
2023/09/28 05:28:11;;;;;;;17.33;5.75;;;;;;;18.68;69.16;100303.97;5071698;28;20089;-79
2023/09/28 05:33:59;;;;;;;10.90;4.85;;;;;;;18.91;68.62;100299.19;5056076;28;20079;-82
2023/09/28 05:36:24;;;;;;;15.07;4.93;;;;;;;18.88;68.58;100289.72;5051552;28;20033;-82
2023/09/28 05:38:50;;;;;;;9.93;4.88;;;;;;;18.91;68.65;100278.38;5059446;28;20601;-82
2023/09/28 05:41:15;;;;;;;11.48;5.20;;;;;;;18.98;68.54;100289.75;5064993;28;20083;-83
2023/09/28 05:43:41;;;;;;;10.55;5.50;;;;;;;19.10;68.92;100280.53;5058619;28;20039;-83
2023/09/28 05:46:09;;;;;;;11.48;4.80;;;;;;;19.25;68.21;100292.19;5055790;28;20114;-81
2023/09/28 05:48:35;;;;;;;9.52;5.00;;;;;;;19.84;66.35;100295.38;5049553;28;20422;-85
2023/09/28 05:51:01;;;;;;;11.00;5.03;;;;;;;19.47;66.14;100269.41;5050326;28;20029;-82
2023/09/28 05:53:26;;;;;;;10.85;5.13;;;;;;;19.41;66.24;100259.69;5049544;28;20094;-81
2023/09/28 05:56:11;;;;;;;13.73;5.28;;;;;;;19.49;67.45;100272.66;5063282;28;20034;-82
2023/09/28 05:58:36;;;;;;;13.70;5.40;;;;;;;19.66;66.40;100294.81;5069408;28;20043;-82
2023/09/28 06:01:08;;;;;;;10.80;5.22;;;;;;;19.75;66.85;100302.41;5067102;28;20025;-81
2023/09/28 06:03:52;;;;;;;12.75;5.53;;;;;;;19.94;65.97;100294.50;5051180;28;20032;-81
2023/09/28 06:06:19;;;;;;;14.07;5.25;;;;;;;19.89;65.63;100281.81;5050884;28;20028;-82
2023/09/28 06:08:50;;;;;;;11.63;5.03;;;;;;;20.09;65.33;100304.50;5050974;28;20745;-82
2023/09/28 06:11:34;;;;;;;13.68;5.38;;;;;;;20.27;64.43;100312.00;5049712;28;20296;-82
2023/09/28 06:16:44;;;;;;;10.70;4.60;;;;;;;19.99;64.59;100280.97;5052614;28;20044;-82
2023/09/28 06:19:09;;;;;;;12.75;5.22;;;;;;;19.75;65.33;100283.47;5050928;28;20017;-82
2023/09/28 06:21:35;;;;;;;13.18;5.13;;;;;;;19.89;65.81;100306.16;5053326;28;20032;-83
2023/09/28 06:24:19;;;;;;;13.98;5.07;;;;;;;19.99;65.90;100302.63;5054196;28;20033;-82
2023/09/28 06:26:48;;;;;;;9.70;4.75;;;;;;;20.04;64.72;100298.00;5060908;28;20488;-82
2023/09/28 06:29:14;;;;;;;12.55;5.85;;;;;;;20.14;64.68;100304.47;5065391;28;20547;-79
2023/09/28 06:31:42;;;;;;;10.38;5.57;;;;;;;20.12;63.95;100295.81;5049321;28;20032;-81
2023/09/28 06:34:08;;;;;;;12.73;5.25;;;;;;;20.22;63.32;100306.59;5052803;28;20071;-80
2023/09/28 06:36:33;;;;;;;11.73;4.82;;;;;;;20.23;62.97;100308.22;5054889;28;20086;-81
2023/09/28 06:41:43;;;;;;;8.40;4.70;;;;;;;20.10;63.18;100317.75;5065894;28;20095;-81
2023/09/28 06:44:08;;;;;;;10.27;4.75;;;;;;;19.87;63.67;100328.09;5050295;28;20017;-80
2023/09/28 06:46:34;;;;;;;13.88;5.03;;;;;;;20.04;62.80;100327.78;5012586;28;1182900;-82
2023/09/28 06:48:59;;;;;;;10.02;4.25;;;;;;;20.19;62.37;100326.94;5048167;28;20049;-81
2023/09/28 06:51:43;;;;;;;9.77;4.22;;;;;;;20.12;63.19;100306.63;5048303;28;20067;-81
2023/09/28 06:56:56;;;;;;;12.82;4.82;;;;;;;20.13;63.05;100314.50;5049006;28;20128;-84
2023/09/28 06:59:22;;;;;;;11.45;4.40;;;;;;;20.29;62.02;100328.78;5049514;28;20041;-82
2023/09/28 07:04:50;;;;;;;13.93;5.35;;;;;;;20.43;62.13;100346.06;5042040;28;20796;-80
2023/09/28 07:07:33;;;;;;;13.15;5.93;;;;;;;20.57;61.90;100337.31;5053762;28;20082;-81
2023/09/28 07:13:06;;;;;;;12.10;6.05;;;;;;;20.90;60.40;100343.13;5048997;28;20035;-81
2023/09/28 07:15:33;;;;;;;12.18;6.15;;;;;;;20.85;59.71;100339.34;5050933;28;20469;-82
2023/09/28 07:17:59;;;;;;;18.17;5.83;;;;;;;20.59;60.61;100325.13;5041734;28;20043;-81
2023/09/28 07:20:26;;;;;;;15.15;6.13;;;;;;;20.76;61.06;100342.94;5055948;28;20024;-82
2023/09/28 07:23:10;;;;;;;13.68;6.50;;;;;;;20.58;60.70;100334.38;5066237;28;20028;-81
2023/09/28 07:25:38;;;;;;;17.83;7.18;;;;;;;20.64;60.59;100340.56;5057824;28;20060;-81
2023/09/28 07:28:06;;;;;;;16.08;5.85;;;;;;;20.83;60.21;100357.00;5055145;28;20040;-83
2023/09/28 07:33:55;;;;;;;16.15;5.45;;;;;;;20.92;59.73;100359.91;5051985;28;20426;-82
2023/09/28 07:36:39;;;;;;;14.57;6.47;;;;;;;21.30;59.14;100357.50;5060967;28;20029;-82
2023/09/28 07:39:05;;;;;;;12.70;5.60;;;;;;;21.49;57.83;100341.34;5056225;28;20507;-84
2023/09/28 07:41:30;;;;;;;8.85;5.10;;;;;;;21.43;58.25;100356.84;5049070;28;20072;-81
2023/09/28 07:43:56;;;;;;;14.98;5.65;;;;;;;21.44;58.07;100345.72;5049493;28;20063;-81
2023/09/28 07:46:21;;;;;;;11.30;4.97;;;;;;;21.37;58.02;100347.13;5063065;28;20036;-84
2023/09/28 07:48:47;;;;;;;13.65;4.82;;;;;;;21.40;57.77;100341.94;5048597;28;20037;-80
2023/09/28 07:51:31;;;;;;;10.05;5.10;;;;;;;21.50;57.45;100345.69;5060202;28;20516;-80
2023/09/28 07:53:57;;;;;;;11.35;4.47;;;;;;;21.73;57.74;100355.78;5069517;28;20034;-82
2023/09/28 07:56:22;;;;;;;11.52;5.28;;;;;;;21.58;58.00;100343.16;5064333;28;20041;-81
2023/09/28 07:58:47;;;;;;;13.23;4.50;;;;;;;21.92;56.75;100363.19;5050219;28;20837;-80
2023/09/28 08:01:15;;;;;;;11.50;4.40;;;;;;;21.61;57.23;100337.16;5049797;28;20044;-81
2023/09/28 08:03:40;;;;;;;12.87;5.20;;;;;;;21.63;57.39;100348.53;5048605;28;20119;-80
2023/09/28 08:06:05;;;;;;;10.10;5.07;;;;;;;21.44;57.63;100336.78;5049975;28;20104;-83
2023/09/28 08:08:33;;;;;;;12.32;5.00;;;;;;;21.42;56.83;100338.94;5049567;28;20036;-80
2023/09/28 08:11:00;;;;;;;13.25;4.88;;;;;;;21.48;57.77;100348.69;5054871;28;20074;-83
2023/09/28 08:13:26;;;;;;;12.93;5.07;;;;;;;21.42;57.93;100347.09;5064007;28;20029;-81
2023/09/28 08:15:51;;;;;;;13.43;4.55;;;;;;;21.27;58.99;100329.03;5051228;28;20093;-80
2023/09/28 08:18:16;;;;;;;13.00;4.72;;;;;;;21.32;59.13;100334.41;5048216;28;20126;-83
2023/09/28 08:21:01;;;;;;;9.77;4.07;;;;;;;21.57;58.77;100346.97;5051450;28;20398;-81
2023/09/28 08:23:27;;;;;;;9.23;4.15;;;;;;;21.32;59.12;100347.16;5063429;28;20611;-80
2023/09/28 08:25:52;;;;;;;14.13;4.75;;;;;;;21.38;59.82;100348.75;5054857;28;20585;-80
2023/09/28 08:28:17;;;;;;;11.10;4.63;;;;;;;21.54;59.53;100352.97;5055822;28;20154;-81
2023/09/28 08:30:43;;;;;;;13.13;5.43;;;;;;;21.30;60.76;100346.66;5049363;28;20036;-80
2023/09/28 08:35:52;;;;;;;12.38;4.90;;;;;;;21.15;60.06;100320.47;5037311;28;20104;-81
2023/09/28 08:38:37;;;;;;;12.98;4.78;;;;;;;21.45;59.79;100339.22;5053610;28;20016;-80
2023/09/28 08:41:06;;;;;;;9.82;4.35;;;;;;;21.38;59.30;100340.59;5068017;28;20468;-80
2023/09/28 08:43:41;;;;;;;12.75;5.00;;;;;;;21.42;59.36;100345.19;5049236;28;20468;-80
2023/09/28 08:49:32;;;;;;;11.20;4.43;;;;;;;21.58;58.07;100316.03;5055527;28;20036;-80
2023/09/28 08:51:59;;;;;;;11.10;4.82;;;;;;;21.55;58.72;100304.94;5060812;28;20029;-81
2023/09/28 08:54:24;;;;;;;11.75;4.60;;;;;;;21.73;58.97;100333.25;5059203;28;20020;-81
2023/09/28 08:56:57;;;;;;;9.15;4.43;;;;;;;21.81;59.02;100321.78;5069683;28;20028;-80
2023/09/28 08:59:41;;;;;;;10.77;4.63;;;;;;;21.88;58.17;100333.09;5049944;28;20026;-80
2023/09/28 09:02:08;;;;;;;12.52;4.95;;;;;;;21.86;57.90;100316.28;5049087;28;20032;-81
2023/09/28 09:04:38;;;;;;;9.67;4.97;;;;;;;21.79;57.51;100321.25;5057834;28;20217;-82
2023/09/28 09:07:04;;;;;;;11.93;5.03;;;;;;;21.74;57.44;100324.00;5055118;28;20035;-81
2023/09/28 09:09:32;;;;;;;12.65;4.65;;;;;;;21.90;57.20;100325.47;5050015;28;20039;-81
2023/09/28 09:14:46;;;;;;;;;;;;;;;22.51;56.35;100331.31;5064174;28;20047;-81
2023/09/28 09:17:11;;;;;;;8.88;4.03;;;;;;;22.83;56.23;100301.47;5052162;28;19917;-81
2023/09/28 09:22:25;;;;;;;17.77;6.35;;;;;;;22.65;56.52;100332.19;5052513;28;20044;-81
2023/09/28 09:24:54;;;;;;;10.75;4.20;;;;;;;22.48;57.79;100293.84;5052496;28;20032;-81
2023/09/28 09:27:28;;;;;;;8.77;3.80;;;;;;;22.54;57.89;100325.31;5056553;28;20033;-80
2023/09/28 09:32:56;;;;;;;10.35;3.85;;;;;;;22.57;60.21;100303.75;5052665;28;20155;-83
2023/09/28 09:35:25;;;;;;;7.00;3.75;;;;;;;22.59;59.76;100304.28;5052627;28;20071;-80
2023/09/28 09:37:53;;;;;;;6.97;4.22;;;;;;;22.99;58.84;100314.84;5052494;28;20025;-80
2023/09/28 09:40:18;;;;;;;6.55;3.58;;;;;;;23.25;57.49;100307.09;5052109;28;20159;-80
2023/09/28 09:42:44;;;;;;;9.10;3.70;;;;;;;23.56;56.53;100303.84;5052119;28;20075;-81
2023/09/28 09:45:11;;;;;;;8.90;3.50;;;;;;;23.57;56.92;100314.44;5052697;28;20025;-82
2023/09/28 09:48:00;;;;;;;9.00;3.83;;;;;;;23.90;56.56;100279.00;5063692;28;20052;-81
2023/09/28 09:50:29;;;;;;;8.13;3.70;;;;;;;24.75;54.74;100303.94;5058647;28;20032;-79
2023/09/28 09:52:56;;;;;;;6.68;3.78;;;;;;;24.78;54.69;100307.94;5063749;28;20033;-80
2023/09/28 09:55:22;;;;;;;6.60;3.38;;;;;;;25.06;53.63;100303.19;5050292;28;20025;-81
2023/09/28 09:57:48;;;;;;;14.82;4.50;;;;;;;24.55;55.80;100298.94;5055289;28;20033;-81
2023/09/28 10:00:18;;;;;;;9.00;3.40;;;;;;;24.69;55.94;100294.25;5058458;28;20040;-80
2023/09/28 10:02:46;;;;;;;7.53;3.35;;;;;;;25.15;55.02;100306.81;5050448;28;20037;-78
2023/09/28 10:05:13;;;;;;;;;;;;;;;25.31;54.88;100300.97;5051696;28;20382;-82
2023/09/28 10:07:43;;;;;;;7.78;3.25;;;;;;;25.28;55.50;100293.44;5062179;28;19916;-81
2023/09/28 10:10:09;;;;;;;15.55;4.22;;;;;;;25.63;53.61;100288.94;5071599;28;20105;-81
2023/09/28 10:12:36;;;;;;;7.40;3.20;;;;;;;25.38;53.06;100293.97;5069896;28;20031;-82
2023/09/28 10:15:02;;;;;;;8.40;3.38;;;;;;;25.27;53.40;100295.34;5067830;28;20095;-82
2023/09/28 10:17:28;;;;;;;7.22;3.40;;;;;;;24.66;54.94;100279.31;5055999;28;20024;-81
2023/09/28 10:19:59;;;;;;;9.85;3.75;;;;;;;24.79;54.15;100287.75;5062698;28;20033;-82
2023/09/28 10:22:28;;;;;;;7.15;3.60;;;;;;;24.77;54.92;100301.69;5070183;28;20483;-81
2023/09/28 10:27:56;;;;;;;8.85;3.50;;;;;;;24.76;55.12;100304.72;5051739;28;20099;-80
2023/09/28 10:30:22;;;;;;;8.10;3.50;;;;;;;24.78;55.14;100269.78;5051322;28;20032;-81
2023/09/28 10:32:51;;;;;;;7.43;4.03;;;;;;;24.85;53.83;100273.69;5052538;28;20025;-79
2023/09/28 10:38:23;;;;;;;9.23;3.60;;;;;;;24.79;53.83;100288.56;5058583;28;20113;-81
2023/09/28 10:41:05;;;;;;;8.10;3.58;;;;;;;24.60;54.63;100291.47;5052370;28;20638;-80
2023/09/28 10:43:37;;;;;;;8.13;3.55;;;;;;;24.64;54.20;100297.09;5050349;28;20122;-84
2023/09/28 10:46:23;;;;;;;7.90;3.70;;;;;;;24.86;52.85;100293.59;5051810;28;20259;-81
2023/09/28 10:48:49;;;;;;;7.30;3.80;;;;;;;24.50;54.48;100290.84;5054233;28;20041;-81
2023/09/28 10:51:16;;;;;;;8.95;4.03;;;;;;;24.53;52.92;100284.81;5070444;28;20039;-81
2023/09/28 10:54:00;;;;;;;8.57;4.20;;;;;;;24.18;52.71;100263.44;5063622;28;20029;-81
2023/09/28 10:56:26;;;;;;;9.63;4.13;;;;;;;24.09;52.78;100275.34;5051273;28;20094;-82
2023/09/28 10:58:56;;;;;;;11.85;3.63;;;;;;;24.27;53.28;100291.59;5050544;28;20025;-82
2023/09/28 11:01:43;;;;;;;8.32;3.50;;;;;;;24.26;52.85;100272.81;5049269;28;20036;-81
2023/09/28 11:04:09;;;;;;;10.13;3.80;;;;;;;24.57;51.91;100272.19;5060346;28;20058;-84
2023/09/28 11:06:38;;;;;;;10.02;3.80;;;;;;;24.65;52.23;100283.16;5062340;28;20057;-81
2023/09/28 11:09:05;;;;;;;8.50;3.60;;;;;;;24.10;52.85;100277.00;5061637;28;20036;-82
2023/09/28 11:11:49;;;;;;;9.65;4.32;;;;;;;24.42;52.28;100276.81;5050862;28;20033;-85
2023/09/28 11:14:14;;;;;;;8.05;3.60;;;;;;;24.34;52.88;100293.91;5057839;28;20119;-83
2023/09/28 11:16:59;;;;;;;8.80;3.30;;;;;;;24.19;53.77;100296.94;5059058;28;20124;-82
2023/09/28 11:22:29;;;;;;;9.25;4.00;;;;;;;24.23;53.49;100267.97;5050255;28;20158;-82
2023/09/28 11:25:13;;;;;;;7.53;3.53;;;;;;;24.06;54.30;100274.84;5050483;28;20845;-82
2023/09/28 11:27:39;;;;;;;8.82;4.13;;;;;;;24.03;54.08;100272.75;5052378;28;20045;-82
2023/09/28 11:30:07;;;;;;;9.20;3.70;;;;;;;23.83;55.20;100268.50;5054772;28;20028;-82
2023/09/28 11:32:51;;;;;;;12.13;3.53;;;;;;;23.83;55.31;100286.78;5050242;28;20032;-82
2023/09/28 11:35:54;;;;;;;12.30;3.83;;;;;;;24.12;55.22;100285.66;5048809;28;20036;-82
2023/09/28 11:38:39;;;;;;;8.38;3.40;;;;;;;23.95;55.12;100286.28;5052381;28;20028;-82
2023/09/28 11:41:23;;;;;;;9.55;3.67;;;;;;;24.19;54.51;100280.59;5057730;28;20025;-81
2023/09/28 11:43:51;;;;;;;11.18;4.22;;;;;;;23.99;54.96;100287.28;5048739;28;20032;-82
2023/09/28 11:46:28;;;;;;;7.90;3.90;;;;;;;24.11;55.13;100279.41;5048106;28;20029;-82
2023/09/28 11:49:09;;;;;;;7.57;4.07;;;;;;;23.96;56.63;100277.78;5052266;28;20025;-83
2023/09/28 11:51:54;;;;;;;22.10;4.43;;;;;;;24.16;57.08;100264.88;5055990;28;20394;-82
2023/09/28 11:54:38;;;;;;;6.95;3.60;;;;;;;24.23;56.49;100271.53;5063724;28;20413;-83
2023/09/28 11:57:07;;;;;;;8.88;3.83;;;;;;;24.23;56.34;100276.97;5049711;28;20029;-82
2023/09/28 11:59:33;;;;;;;10.00;4.25;;;;;;;24.06;57.63;100274.06;5058735;28;20047;-82
2023/09/28 12:07:27;;;;;;;8.70;4.13;;;;;;;23.78;58.46;100262.34;5051477;28;20028;-82
2023/09/28 12:10:11;;;;;;;8.10;3.97;;;;;;;23.96;58.98;100269.63;5052458;28;20033;-80
2023/09/28 12:12:38;;;;;;;8.60;3.65;;;;;;;23.73;59.78;100257.78;5041840;28;20044;-83
2023/09/28 12:15:10;;;;;;;8.00;3.95;;;;;;;23.53;61.02;100253.53;5058082;28;20032;-82
2023/09/28 12:17:38;;;;;;;8.32;3.83;;;;;;;23.66;61.40;100255.47;5067428;28;20067;-81
2023/09/28 12:20:04;;;;;;;9.65;3.90;;;;;;;23.58;61.02;100250.75;5057730;28;20032;-81
2023/09/28 12:22:29;;;;;;;8.50;3.90;;;;;;;23.52;60.33;100246.50;5049753;28;20025;-82
2023/09/28 12:24:55;;;;;;;10.43;4.30;;;;;;;24.01;59.30;100247.72;5048728;28;20061;-81
2023/09/28 12:30:24;;;;;;;10.65;3.92;;;;;;;24.03;57.84;100248.22;5053669;28;20040;-82
2023/09/28 12:32:53;;;;;;;8.23;4.50;;;;;;;24.09;58.36;100246.22;5042472;28;20040;-83
2023/09/28 12:35:39;;;;;;;8.15;4.07;;;;;;;24.29;58.34;100264.03;5047838;28;20036;-81
2023/09/28 12:38:42;;;;;;;9.48;3.88;;;;;;;24.26;58.06;100260.00;5048462;28;20418;-81
2023/09/28 12:41:26;;;;;;;11.15;4.63;;;;;;;24.02;58.46;100235.72;5049732;28;20024;-81
2023/09/28 12:43:52;;;;;;;9.57;3.97;;;;;;;24.04;58.02;100247.09;5069316;28;20120;-83
2023/09/28 12:46:36;;;;;;;9.40;3.67;;;;;;;23.74;58.97;100225.91;5057870;28;20116;-86
2023/09/28 12:49:01;;;;;;;10.88;4.03;;;;;;;23.90;58.58;100237.34;5066374;28;20086;-83
2023/09/28 12:51:27;;;;;;;9.85;3.65;;;;;;;24.27;58.01;100252.63;5052181;28;20033;-82
2023/09/28 12:54:12;;;;;;;14.02;4.30;;;;;;;24.34;57.04;100244.84;5052338;28;20479;-82
2023/09/28 12:56:38;;;;;;;8.70;3.70;;;;;;;24.38;56.25;100240.41;5068974;28;20047;-83
2023/09/28 13:01:48;;;;;;;9.98;3.75;;;;;;;24.43;54.94;100256.63;5054110;28;20132;-83
2023/09/28 13:04:14;;;;;;;9.43;3.80;;;;;;;24.46;55.86;100247.84;5052345;28;20469;-83
2023/09/28 13:06:39;;;;;;;10.40;4.38;;;;;;;24.52;54.25;100255.91;5052555;28;20021;-82
2023/09/28 13:09:06;;;;;;;9.10;3.83;;;;;;;24.58;52.90;100232.88;5067455;28;20117;-82
2023/09/28 13:11:35;;;;;;;11.13;4.05;;;;;;;24.73;55.04;100240.72;5054311;28;20025;-83
2023/09/28 13:14:01;;;;;;;7.90;3.85;;;;;;;24.96;54.99;100266.06;5053307;28;20106;-84
2023/09/28 13:16:28;;;;;;;11.82;4.68;;;;;;;24.68;54.49;100254.44;5053324;28;20490;-82